Time;durP1;ratioP1;P1;durP2;ratioP2;P2;SDS_P1;SDS_P2;PMS_P1;PMS_P2;Temp;Humidity;BMP_temperature;BMP_pressure;BME280_temperature;BME280_humidity;BME280_pressure;Samples;Min_cycle;Max_cycle;Signal;HPM_P1;HPM_P2
2022/06/15 00:00:16;;;;;;;5.83;5.23;;;15.50;86.90;;;;;;5006443;28;20868;-59
2022/06/15 00:02:43;;;;;;;7.27;5.53;;;15.40;86.20;;;;;;5006877;28;20488;-59
2022/06/15 00:05:11;;;;;;;7.23;5.43;;;15.40;86.70;;;;;;4997265;28;20476;-59
2022/06/15 00:07:38;;;;;;;6.27;5.77;;;15.40;86.30;;;;;;5013299;28;20492;-60
2022/06/15 00:10:05;;;;;;;7.63;5.10;;;15.40;85.90;;;;;;5007393;28;20512;-58
2022/06/15 00:12:32;;;;;;;5.40;4.90;;;15.40;86.60;;;;;;5008093;28;20480;-58
2022/06/15 00:14:59;;;;;;;6.33;5.73;;;15.30;87.00;;;;;;5007038;28;20488;-58
2022/06/15 00:17:25;;;;;;;7.07;5.87;;;15.30;86.70;;;;;;5007652;28;20485;-59
2022/06/15 00:19:52;;;;;;;5.60;5.10;;;15.30;87.00;;;;;;5005217;28;20492;-59
2022/06/15 00:22:20;;;;;;;7.77;5.27;;;15.30;87.50;;;;;;5007764;28;21013;-59
2022/06/15 00:24:47;;;;;;;5.60;5.07;;;15.30;87.10;;;;;;5008917;28;21007;-59
2022/06/15 00:27:14;;;;;;;8.17;5.83;;;15.30;87.50;;;;;;5006522;28;20499;-58
2022/06/15 00:29:41;;;;;;;5.77;5.27;;;15.30;86.80;;;;;;5002380;28;20496;-59
2022/06/15 00:32:08;;;;;;;4.80;4.40;;;15.20;87.00;;;;;;5007457;28;20492;-58
2022/06/15 00:34:35;;;;;;;5.57;5.07;;;15.10;87.20;;;;;;5009378;28;20852;-58
2022/06/15 00:37:02;;;;;;;5.00;4.57;;;14.90;87.40;;;;;;5008074;28;20962;-58
2022/06/15 00:39:30;;;;;;;6.97;6.27;;;14.80;88.40;;;;;;5004855;28;20484;-58
2022/06/15 00:41:57;;;;;;;10.97;5.53;;;14.70;87.80;;;;;;5014006;28;21010;-59
2022/06/15 00:44:38;;;;;;;8.47;5.23;;;14.70;87.30;;;;;;5003724;28;20522;-59
2022/06/15 00:47:11;;;;;;;8.67;5.50;;;14.70;87.20;;;;;;5010716;28;20836;-58
2022/06/15 00:49:42;;;;;;;8.20;6.00;;;14.80;88.20;;;;;;5007659;28;20492;-58
2022/06/15 00:52:13;;;;;;;9.03;5.67;;;14.70;87.80;;;;;;5008587;28;20894;-59
2022/06/15 00:54:42;;;;;;;13.83;5.90;;;14.70;87.50;;;;;;5008677;28;20481;-59
2022/06/15 00:57:09;;;;;;;6.73;5.00;;;14.50;88.50;;;;;;5008020;28;20871;-59
2022/06/15 00:59:41;;;;;;;6.40;5.80;;;14.50;88.90;;;;;;5008024;28;20481;-59
2022/06/15 01:02:08;;;;;;;7.57;5.93;;;14.40;89.40;;;;;;5008195;28;20487;-59
2022/06/15 01:04:40;;;;;;;8.53;5.03;;;14.30;89.20;;;;;;4998139;28;20517;-59
2022/06/15 01:07:16;;;;;;;12.07;6.07;;;14.40;89.40;;;;;;5019309;28;20579;-59
2022/06/15 01:09:53;;;;;;;7.60;6.57;;;14.40;88.90;;;;;;5006942;28;20930;-58
2022/06/15 01:12:29;;;;;;;6.50;5.80;;;14.40;88.90;;;;;;5013551;28;21286;-59
2022/06/15 01:15:19;;;;;;;10.20;5.43;;;14.20;89.40;;;;;;5009127;28;20874;-58
2022/06/15 01:18:00;;;;;;;7.63;6.27;;;14.20;89.20;;;;;;5006821;28;20481;-58
2022/06/15 01:20:46;;;;;;;6.93;5.70;;;14.20;89.50;;;;;;4995022;28;20472;-58
2022/06/15 01:24:03;;;;;;;6.10;5.10;;;14.20;90.00;;;;;;5009069;28;20610;-58
2022/06/15 01:27:00;;;;;;;5.97;5.47;;;14.20;88.20;;;;;;5006733;28;20502;-58
2022/06/15 01:30:12;;;;;;;7.23;6.53;;;14.10;88.30;;;;;;4996110;28;20487;-58
2022/06/15 01:32:47;;;;;;;7.57;6.87;;;14.10;87.80;;;;;;5008447;28;20476;-58
2022/06/15 01:35:23;;;;;;;6.77;5.03;;;14.10;88.20;;;;;;5010598;28;20484;-59
2022/06/15 01:37:57;;;;;;;6.30;5.70;;;14.10;88.00;;;;;;5015377;28;20487;-58
2022/06/15 01:40:32;;;;;;;7.00;5.50;;;14.10;87.50;;;;;;5003601;28;21156;-58
2022/06/15 01:43:02;;;;;;;5.40;4.90;;;14.10;88.00;;;;;;5010476;28;20491;-58
2022/06/15 01:45:34;;;;;;;8.10;5.67;;;14.10;87.50;;;;;;5016913;28;21017;-58
2022/06/15 01:48:07;;;;;;;8.63;6.10;;;14.10;87.80;;;;;;5020850;28;20480;-58
2022/06/15 01:50:39;;;;;;;12.83;6.77;;;14.00;87.20;;;;;;5023648;28;20842;-58
2022/06/15 01:53:12;;;;;;;6.17;5.53;;;14.00;87.50;;;;;;5020861;28;20495;-58
2022/06/15 01:55:45;;;;;;;8.00;7.30;;;14.00;88.20;;;;;;5017983;28;20488;-56
2022/06/15 01:58:14;;;;;;;5.13;4.63;;;13.90;87.70;;;;;;5018416;28;20492;-58
2022/06/15 02:00:43;;;;;;;10.20;6.57;;;13.90;87.60;;;;;;5023218;28;20484;-58
2022/06/15 02:03:16;;;;;;;9.80;6.63;;;13.80;87.60;;;;;;5021103;28;20527;-58
2022/06/15 02:05:55;;;;;;;6.60;6.00;;;13.80;87.90;;;;;;5025630;28;20570;-58
2022/06/15 02:08:30;;;;;;;6.80;5.37;;;13.80;87.40;;;;;;5018093;28;20479;-57
2022/06/15 02:11:03;;;;;;;6.13;5.50;;;13.70;87.80;;;;;;5014181;28;20480;-57
2022/06/15 02:13:36;;;;;;;7.80;6.23;;;13.60;88.40;;;;;;5028883;28;20494;-58
2022/06/15 02:16:07;;;;;;;7.80;5.23;;;13.50;88.10;;;;;;5019925;28;20486;-59
2022/06/15 02:18:37;;;;;;;7.33;6.43;;;13.50;88.70;;;;;;5009466;28;20491;-59
2022/06/15 02:21:10;;;;;;;5.80;5.17;;;13.50;88.10;;;;;;5022235;28;20888;-59
2022/06/15 02:23:39;;;;;;;7.00;6.20;;;13.50;87.40;;;;;;5015850;28;20487;-59
2022/06/15 02:26:07;;;;;;;5.50;4.80;;;13.50;88.10;;;;;;5021341;28;20487;-59
2022/06/15 02:28:38;;;;;;;5.73;5.23;;;13.50;87.90;;;;;;5019725;28;20530;-59
2022/06/15 02:31:05;;;;;;;6.53;5.90;;;13.50;87.90;;;;;;5018065;28;20482;-58
2022/06/15 02:33:38;;;;;;;6.73;5.63;;;13.40;87.60;;;;;;5019668;28;20487;-59
2022/06/15 02:36:06;;;;;;;5.43;4.93;;;13.40;87.50;;;;;;5021760;28;20575;-58
2022/06/15 02:38:33;;;;;;;7.57;6.87;;;13.40;88.00;;;;;;5024919;28;20480;-58
2022/06/15 02:41:00;;;;;;;7.77;4.50;;;13.30;88.90;;;;;;5017597;28;20570;-59
2022/06/15 02:43:29;;;;;;;6.23;5.60;;;13.20;88.80;;;;;;5021195;28;20977;-58
2022/06/15 02:46:00;;;;;;;5.93;5.30;;;13.10;89.00;;;;;;5019308;28;21450;-58
2022/06/15 02:48:27;;;;;;;10.63;6.10;;;13.10;88.10;;;;;;5020635;28;20491;-58
2022/06/15 02:51:01;;;;;;;8.00;5.33;;;13.00;88.40;;;;;;5018403;28;20491;-57
2022/06/15 02:53:30;;;;;;;7.07;6.37;;;13.00;88.70;;;;;;5020213;28;20495;-58
2022/06/15 02:55:58;;;;;;;5.77;5.17;;;13.00;88.60;;;;;;5020481;28;20492;-57
2022/06/15 02:58:27;;;;;;;10.57;5.10;;;12.90;87.80;;;;;;5020167;28;20499;-57
2022/06/15 03:00:54;;;;;;;6.53;5.03;;;12.90;87.90;;;;;;5018850;28;20595;-56
2022/06/15 03:03:22;;;;;;;5.00;4.60;;;12.90;88.10;;;;;;5021489;28;20498;-57
2022/06/15 03:05:49;;;;;;;6.80;4.87;;;12.90;88.50;;;;;;5013570;28;20556;-56
2022/06/15 03:08:19;;;;;;;8.73;5.00;;;12.80;87.90;;;;;;5021533;28;21135;-56
2022/06/15 03:10:46;;;;;;;9.20;4.53;;;12.80;87.70;;;;;;5021051;28;20503;-56
2022/06/15 03:13:13;;;;;;;5.27;4.77;;;12.80;88.60;;;;;;4975577;28;20493;-56
2022/06/15 03:15:40;;;;;;;9.13;6.87;;;12.80;88.90;;;;;;5019555;28;20527;-56
2022/06/15 03:18:07;;;;;;;7.63;5.03;;;12.80;88.40;;;;;;4978582;28;20561;-56
2022/06/15 03:20:34;;;;;;;6.37;5.27;;;12.70;88.30;;;;;;4984208;28;20587;-56
2022/06/15 03:23:01;;;;;;;5.93;5.30;;;12.70;88.00;;;;;;4963444;28;20490;-56
2022/06/15 03:25:29;;;;;;;8.77;6.40;;;12.70;88.60;;;;;;4984479;28;20487;-57
2022/06/15 03:27:56;;;;;;;13.07;4.60;;;12.60;88.30;;;;;;4993743;28;20499;-57
2022/06/15 03:30:23;;;;;;;6.87;4.10;;;12.60;88.40;;;;;;5011362;28;20494;-57
2022/06/15 03:32:49;;;;;;;5.00;4.60;;;12.50;88.30;;;;;;4983670;28;20574;-57
2022/06/15 03:35:16;;;;;;;4.60;4.20;;;12.50;88.80;;;;;;5004311;28;21109;-57
2022/06/15 03:37:43;;;;;;;6.40;5.60;;;12.30;88.60;;;;;;4981437;28;20478;-57
2022/06/15 03:40:14;;;;;;;5.50;4.80;;;12.20;89.40;;;;;;5014268;28;20491;-57
2022/06/15 03:42:42;;;;;;;6.87;6.20;;;12.10;89.90;;;;;;4982363;28;21101;-57
2022/06/15 03:45:12;;;;;;;8.80;4.87;;;12.10;90.20;;;;;;4970726;28;21035;-57
2022/06/15 03:47:39;;;;;;;6.53;5.93;;;12.00;90.60;;;;;;5002165;28;20895;-57
2022/06/15 03:50:06;;;;;;;7.00;5.87;;;11.90;91.00;;;;;;4983387;28;21004;-57
2022/06/15 03:52:33;;;;;;;9.40;6.10;;;11.90;90.80;;;;;;4977218;28;20922;-57
2022/06/15 03:55:00;;;;;;;8.27;4.80;;;12.00;90.80;;;;;;4967182;28;21087;-57
2022/06/15 03:57:26;;;;;;;9.23;5.07;;;12.00;90.50;;;;;;4952711;28;21017;-57
2022/06/15 03:59:55;;;;;;;9.00;4.50;;;12.00;90.30;;;;;;5004480;28;20481;-57
2022/06/15 04:02:21;;;;;;;8.03;4.80;;;12.00;90.30;;;;;;4988358;28;21084;-57
2022/06/15 04:04:48;;;;;;;6.47;5.50;;;12.00;90.60;;;;;;4972880;28;20495;-57
2022/06/15 04:09:55;;;;;;;6.97;4.57;;;11.80;90.80;;;;;;4995866;28;20478;-56
2022/06/15 04:12:22;;;;;;;4.77;4.27;;;11.70;91.10;;;;;;5020511;28;20473;-56
2022/06/15 04:14:49;;;;;;;5.20;4.70;;;11.60;91.60;;;;;;5013910;28;21074;-56
2022/06/15 04:17:18;;;;;;;6.27;5.53;;;11.60;92.00;;;;;;5023329;28;20488;-56
2022/06/15 04:20:31;;;;;;;8.70;6.33;;;11.60;92.60;;;;;;5014545;28;20514;-56
2022/06/15 04:22:31;;;;;;;16.30;6.53;;;11.60;92.60;;;;;;5022666;28;21351;-56
2022/06/15 04:24:58;;;;;;;17.80;6.00;;;11.80;92.40;;;;;;5018418;28;20487;-57
2022/06/15 04:27:25;;;;;;;7.20;5.77;;;11.80;92.30;;;;;;5019482;28;20605;-55
2022/06/15 04:29:51;;;;;;;6.20;5.40;;;11.90;92.50;;;;;;5018235;28;20577;-55
2022/06/15 04:32:19;;;;;;;6.60;5.37;;;12.20;91.90;;;;;;5019836;28;20489;-56
2022/06/15 04:34:46;;;;;;;7.50;6.10;;;12.40;91.70;;;;;;5008887;28;20992;-57
2022/06/15 04:37:13;;;;;;;6.00;4.80;;;12.50;91.80;;;;;;5032162;28;20496;-56
2022/06/15 04:39:40;;;;;;;9.00;7.00;;;12.60;91.70;;;;;;5017780;28;20509;-57
2022/06/15 04:42:08;;;;;;;5.97;5.37;;;12.60;91.90;;;;;;5019524;28;20879;-58
2022/06/15 04:44:35;;;;;;;7.30;6.63;;;12.70;92.20;;;;;;5019059;28;20502;-58
2022/06/15 04:47:03;;;;;;;5.80;5.20;;;12.80;91.80;;;;;;5017130;28;20489;-58
2022/06/15 04:49:31;;;;;;;8.33;6.10;;;12.90;91.60;;;;;;5016029;28;20490;-58
2022/06/15 04:51:59;;;;;;;6.43;5.83;;;13.10;91.80;;;;;;5011956;28;20929;-58
2022/06/15 04:54:25;;;;;;;7.10;5.73;;;13.20;91.70;;;;;;5031020;28;21058;-58
2022/06/15 04:56:52;;;;;;;21.27;5.90;;;13.20;92.00;;;;;;5019139;28;20482;-58
2022/06/15 04:59:19;;;;;;;6.10;5.20;;;13.40;91.90;;;;;;5017525;28;20756;-58
2022/06/15 05:01:45;;;;;;;7.30;5.53;;;13.40;92.20;;;;;;5018264;28;20491;-57
2022/06/15 05:04:12;;;;;;;12.93;5.77;;;13.60;92.10;;;;;;5018608;28;20483;-58
2022/06/15 05:06:41;;;;;;;6.83;5.93;;;13.60;92.40;;;;;;5016730;28;20479;-58
2022/06/15 05:09:11;;;;;;;12.33;5.73;;;13.90;92.20;;;;;;5017845;28;20470;-57
2022/06/15 05:11:39;;;;;;;6.27;5.63;;;14.00;91.60;;;;;;5018953;28;20483;-58
2022/06/15 05:14:06;;;;;;;6.43;5.73;;;14.00;91.80;;;;;;5018993;28;20494;-57
2022/06/15 05:16:33;;;;;;;7.03;6.33;;;14.20;91.50;;;;;;5018645;28;20709;-57
2022/06/15 05:19:00;;;;;;;10.20;6.23;;;14.20;91.50;;;;;;5022707;28;20499;-58
2022/06/15 05:21:28;;;;;;;10.27;6.90;;;14.30;91.90;;;;;;5017356;28;20579;-58
2022/06/15 05:23:56;;;;;;;8.80;5.33;;;14.40;91.90;;;;;;5022824;28;20487;-58
2022/06/15 05:26:24;;;;;;;8.33;6.40;;;14.50;92.10;;;;;;5022075;28;20490;-58
2022/06/15 05:28:52;;;;;;;7.50;6.70;;;14.60;92.00;;;;;;5022651;28;21123;-57
2022/06/15 05:31:21;;;;;;;6.90;5.77;;;14.70;92.50;;;;;;5022867;28;20489;-57
2022/06/15 05:33:53;;;;;;;10.70;7.20;;;14.70;92.50;;;;;;5021054;28;20493;-56
2022/06/15 05:36:22;;;;;;;11.40;6.80;;;14.90;92.30;;;;;;5022797;28;20515;-56
2022/06/15 05:38:48;;;;;;;8.80;6.60;;;15.10;93.10;;;;;;5022258;28;21022;-56
2022/06/15 05:41:17;;;;;;;7.10;5.80;;;15.10;93.20;;;;;;5022928;28;20511;-56
2022/06/15 05:43:44;;;;;;;10.17;7.10;;;15.40;93.70;;;;;;5011437;28;20466;-56
2022/06/15 05:46:15;;;;;;;8.83;7.43;;;15.40;93.90;;;;;;5021059;28;20591;-57
2022/06/15 05:48:42;;;;;;;9.93;5.93;;;15.70;91.60;;;;;;5022022;28;20482;-56
2022/06/15 05:51:08;;;;;;;4.43;4.03;;;15.80;91.20;;;;;;5018743;28;20964;-56
2022/06/15 05:53:35;;;;;;;8.40;6.73;;;16.20;90.50;;;;;;5018490;28;21019;-56
2022/06/15 05:56:02;;;;;;;5.07;4.57;;;16.20;90.60;;;;;;5030112;28;20869;-56
2022/06/15 05:58:30;;;;;;;7.10;5.40;;;16.60;90.00;;;;;;5021877;28;20491;-56
2022/06/15 06:00:57;;;;;;;5.37;4.87;;;16.60;90.10;;;;;;5023186;28;21018;-56
2022/06/15 06:03:24;;;;;;;5.70;5.07;;;17.00;88.70;;;;;;5022027;28;20480;-56
2022/06/15 06:05:50;;;;;;;8.30;4.80;;;17.00;88.60;;;;;;5020870;28;20480;-56
2022/06/15 06:08:17;;;;;;;5.90;4.80;;;17.30;87.60;;;;;;5022518;28;20484;-57
2022/06/15 06:10:43;;;;;;;9.17;4.97;;;17.50;88.20;;;;;;5020872;28;20477;-55
2022/06/15 06:13:10;;;;;;;6.27;4.87;;;17.60;87.60;;;;;;5021525;28;20475;-56
2022/06/15 06:15:39;;;;;;;5.77;5.17;;;17.80;87.30;;;;;;5020587;28;20480;-55
2022/06/15 06:18:06;;;;;;;7.60;4.77;;;18.00;87.60;;;;;;5020233;28;20864;-55
2022/06/15 06:20:32;;;;;;;5.60;3.93;;;18.40;85.70;;;;;;5020682;28;21001;-55
2022/06/15 06:22:59;;;;;;;6.83;4.40;;;18.50;85.30;;;;;;5022044;28;21073;-55
2022/06/15 06:25:26;;;;;;;4.90;4.50;;;18.70;85.20;;;;;;5021400;28;20496;-56
2022/06/15 06:27:53;;;;;;;6.83;4.43;;;19.00;85.20;;;;;;5021467;28;20488;-55
2022/06/15 06:30:21;;;;;;;9.97;4.60;;;19.20;85.00;;;;;;5021280;28;20993;-55
2022/06/15 06:32:49;;;;;;;5.30;4.80;;;19.20;85.90;;;;;;5021166;28;20472;-54
2022/06/15 06:35:16;;;;;;;6.80;4.17;;;19.50;83.40;;;;;;5021607;28;20481;-55
2022/06/15 06:37:44;;;;;;;4.60;3.67;;;19.80;83.00;;;;;;5021494;28;20480;-55
2022/06/15 06:40:14;;;;;;;6.50;5.10;;;19.80;84.00;;;;;;5020546;28;20503;-55
2022/06/15 06:42:41;;;;;;;5.23;4.30;;;20.10;83.80;;;;;;5016009;28;20945;-55
2022/06/15 06:45:11;;;;;;;5.70;4.83;;;20.40;81.30;;;;;;5022209;28;20920;-55
2022/06/15 06:47:37;;;;;;;10.37;4.90;;;20.50;82.80;;;;;;5021512;28;21152;-56
2022/06/15 06:50:06;;;;;;;5.27;4.57;;;20.80;80.90;;;;;;5019530;28;20488;-56
2022/06/15 06:52:33;;;;;;;5.37;4.57;;;21.00;79.60;;;;;;5020778;28;20487;-56
2022/06/15 06:55:00;;;;;;;6.40;4.97;;;21.30;80.20;;;;;;5020293;28;20481;-56
2022/06/15 06:57:26;;;;;;;4.30;3.90;;;21.20;80.90;;;;;;5019368;28;20485;-56
2022/06/15 06:59:53;;;;;;;6.73;4.30;;;21.50;80.00;;;;;;5019141;28;20481;-57
2022/06/15 07:02:20;;;;;;;6.93;4.50;;;22.00;80.40;;;;;;5021578;28;20497;-58
2022/06/15 07:04:47;;;;;;;6.17;4.60;;;21.90;80.90;;;;;;5021147;28;20875;-56
2022/06/15 07:07:15;;;;;;;5.03;4.43;;;22.10;79.30;;;;;;5021553;28;20854;-56
2022/06/15 07:09:42;;;;;;;4.67;4.27;;;22.50;78.50;;;;;;5020403;28;20475;-56
2022/06/15 07:12:09;;;;;;;4.97;4.43;;;22.80;77.20;;;;;;5023177;28;20848;-57
2022/06/15 07:14:35;;;;;;;4.80;4.30;;;23.00;76.20;;;;;;5021209;28;20483;-57
2022/06/15 07:17:02;;;;;;;6.70;3.93;;;23.30;74.90;;;;;;5019853;28;21914;-57
2022/06/15 07:19:29;;;;;;;4.13;3.73;;;23.50;74.30;;;;;;5017012;28;20484;-57
2022/06/15 07:21:56;;;;;;;4.70;3.43;;;23.70;74.60;;;;;;5008403;28;20497;-57
2022/06/15 07:24:24;;;;;;;4.50;4.10;;;23.90;73.50;;;;;;5034786;28;20484;-57
2022/06/15 07:26:51;;;;;;;5.17;4.70;;;24.10;72.50;;;;;;5019456;28;20488;-59
2022/06/15 07:29:20;;;;;;;5.17;4.67;;;24.30;73.00;;;;;;5020227;28;20491;-56
2022/06/15 07:31:51;;;;;;;5.00;4.00;;;24.50;72.40;;;;;;5019462;28;20489;-57
2022/06/15 07:34:18;;;;;;;4.37;3.90;;;24.60;72.50;;;;;;5019984;28;20480;-57
2022/06/15 07:36:46;;;;;;;5.37;4.23;;;24.80;71.80;;;;;;5020108;28;20500;-58
2022/06/15 07:39:13;;;;;;;6.40;5.40;;;24.70;68.00;;;;;;5019135;28;21346;-57
2022/06/15 07:41:42;;;;;;;7.70;4.83;;;24.60;68.70;;;;;;5018381;28;20864;-57
2022/06/15 07:44:09;;;;;;;7.47;4.80;;;24.70;69.60;;;;;;5019325;28;20488;-56
2022/06/15 07:46:36;;;;;;;6.43;4.87;;;24.80;69.50;;;;;;5014705;28;20484;-56
2022/06/15 07:51:52;;;;;;;5.17;4.67;;;24.80;68.00;;;;;;5019929;28;20488;-57
2022/06/15 07:54:19;;;;;;;5.07;4.57;;;24.80;68.10;;;;;;5008984;28;20487;-57
2022/06/15 07:56:48;;;;;;;6.13;4.70;;;24.80;69.10;;;;;;5020120;28;20508;-57
2022/06/15 07:59:15;;;;;;;4.77;4.37;;;24.80;69.50;;;;;;5019937;28;21012;-57
2022/06/15 08:01:43;;;;;;;5.50;5.07;;;25.00;70.30;;;;;;5019728;28;20841;-58
2022/06/15 08:04:10;;;;;;;7.17;4.63;;;25.00;68.60;;;;;;5020151;28;20873;-58
2022/06/15 08:06:38;;;;;;;6.53;5.47;;;25.10;68.30;;;;;;5019593;28;20476;-58
2022/06/15 08:09:09;;;;;;;8.07;4.73;;;25.10;69.00;;;;;;5014548;28;20472;-61
2022/06/15 08:11:36;;;;;;;7.77;4.90;;;25.30;70.60;;;;;;5018693;28;20535;-57
2022/06/15 08:14:04;;;;;;;7.83;5.90;;;25.50;70.80;;;;;;5020366;28;20493;-57
2022/06/15 08:16:31;;;;;;;11.77;5.93;;;25.50;68.30;;;;;;5018965;28;20488;-58
2022/06/15 08:19:01;;;;;;;5.77;5.23;;;25.50;69.10;;;;;;5018445;28;20500;-58
2022/06/15 08:21:32;;;;;;;7.37;5.87;;;25.60;67.60;;;;;;5020002;28;20485;-58
2022/06/15 08:24:00;;;;;;;9.60;5.00;;;25.70;71.50;;;;;;5019353;28;20477;-57
2022/06/15 08:26:31;;;;;;;5.53;5.00;;;26.10;69.60;;;;;;5019042;28;20485;-59
2022/06/15 08:29:01;;;;;;;5.03;4.30;;;26.10;69.10;;;;;;5018403;28;20489;-58
2022/06/15 08:31:29;;;;;;;4.80;4.40;;;26.10;67.10;;;;;;5017946;28;21095;-58
2022/06/15 08:33:56;;;;;;;8.13;5.47;;;26.20;70.50;;;;;;5019463;28;20477;-57
2022/06/15 08:36:22;;;;;;;6.33;4.77;;;26.50;70.50;;;;;;5019616;28;20491;-57
2022/06/15 08:38:49;;;;;;;4.40;4.00;;;26.50;70.50;;;;;;5019950;28;20473;-58
2022/06/15 08:41:23;;;;;;;6.50;4.80;;;27.10;70.10;;;;;;5017321;28;20507;-57
2022/06/15 08:43:59;;;;;;;5.03;4.53;;;27.40;68.60;;;;;;5019618;28;20825;-58
2022/06/15 08:46:39;;;;;;;5.30;4.67;;;27.70;71.00;;;;;;5008130;28;20553;-58
2022/06/15 08:49:18;;;;;;;5.60;4.77;;;28.10;69.00;;;;;;5017829;28;20511;-61
2022/06/15 08:51:47;;;;;;;10.20;4.93;;;28.20;67.30;;;;;;5019527;28;20492;-58
2022/06/15 08:54:20;;;;;;;4.97;4.57;;;28.60;67.30;;;;;;5018869;28;20496;-58
2022/06/15 08:56:52;;;;;;;5.77;4.70;;;28.70;68.40;;;;;;5018559;28;20476;-59
2022/06/15 08:59:27;;;;;;;6.60;4.67;;;28.70;66.70;;;;;;5018054;28;20477;-59
2022/06/15 09:02:01;;;;;;;7.03;4.87;;;28.80;65.80;;;;;;5008043;28;20518;-59
2022/06/15 09:04:36;;;;;;;4.97;4.43;;;28.90;66.60;;;;;;5006440;28;20472;-59
2022/06/15 09:07:17;;;;;;;5.93;4.63;;;29.10;66.90;;;;;;5018987;28;20493;-59
2022/06/15 09:10:02;;;;;;;6.53;5.50;;;29.30;65.20;;;;;;5016613;28;20973;-60
2022/06/15 09:12:58;;;;;;;8.07;4.90;;;29.60;66.20;;;;;;5014189;28;20480;-59
2022/06/15 09:15:34;;;;;;;6.80;5.20;;;29.60;66.20;;;;;;5018653;28;20471;-60
2022/06/15 09:18:07;;;;;;;5.90;4.50;;;29.80;64.70;;;;;;5018740;28;20484;-59
2022/06/15 09:20:39;;;;;;;10.57;4.97;;;29.90;63.60;;;;;;5014719;28;20483;-59
2022/06/15 09:23:09;;;;;;;4.47;4.07;;;30.10;64.80;;;;;;5019015;28;20480;-60
2022/06/15 09:25:42;;;;;;;6.23;5.10;;;30.10;65.80;;;;;;5018487;28;20567;-59
2022/06/15 09:28:15;;;;;;;4.17;3.83;;;30.20;63.60;;;;;;5018906;28;20984;-60
2022/06/15 09:30:42;;;;;;;5.27;4.77;;;30.00;61.70;;;;;;5017627;28;20489;-60
2022/06/15 09:33:15;;;;;;;7.13;5.00;;;30.00;63.80;;;;;;5018495;28;20475;-59
2022/06/15 09:35:44;;;;;;;6.73;4.93;;;30.10;65.30;;;;;;5018553;28;20467;-59
2022/06/15 09:38:13;;;;;;;7.57;4.47;;;30.10;66.00;;;;;;5019211;28;20484;-60
2022/06/15 09:40:46;;;;;;;7.23;4.57;;;30.20;59.50;;;;;;5017528;28;20476;-59
2022/06/15 09:43:21;;;;;;;8.67;4.53;;;30.20;64.00;;;;;;5017937;28;20495;-60
2022/06/15 09:45:59;;;;;;;6.57;4.17;;;30.20;62.30;;;;;;5017635;28;21045;-59
2022/06/15 09:48:33;;;;;;;8.87;5.03;;;30.30;64.80;;;;;;5016764;28;21052;-59
2022/06/15 09:51:05;;;;;;;6.73;4.90;;;30.40;63.40;;;;;;5017322;28;20476;-59
2022/06/15 09:53:45;;;;;;;4.90;4.47;;;30.10;60.60;;;;;;5016010;28;20481;-59
2022/06/15 09:56:14;;;;;;;5.50;4.60;;;29.70;59.60;;;;;;5018403;28;20491;-59
2022/06/15 09:58:45;;;;;;;4.60;4.23;;;29.70;59.80;;;;;;5017030;28;20481;-58
2022/06/15 10:01:13;;;;;;;4.53;3.67;;;30.10;65.10;;;;;;5017165;28;20864;-59
2022/06/15 10:03:44;;;;;;;5.10;4.70;;;30.30;64.80;;;;;;5017963;28;20846;-58
2022/06/15 10:06:18;;;;;;;6.40;4.20;;;30.40;58.40;;;;;;5018292;28;20571;-61
2022/06/15 10:08:45;;;;;;;7.23;5.33;;;31.00;64.20;;;;;;5019352;28;20991;-58
2022/06/15 10:11:16;;;;;;;6.30;4.90;;;31.30;63.00;;;;;;5021383;28;20492;-58
2022/06/15 10:13:43;;;;;;;6.00;5.13;;;31.30;64.40;;;;;;5020704;28;20501;-58
2022/06/15 10:16:30;;;;;;;5.40;4.10;;;31.70;64.30;;;;;;5020771;28;20562;-57
2022/06/15 10:19:00;;;;;;;5.40;4.87;;;31.80;61.50;;;;;;5009799;28;20486;-59
2022/06/15 10:21:29;;;;;;;5.47;5.07;;;31.50;60.00;;;;;;5018375;28;20958;-58
2022/06/15 10:24:00;;;;;;;5.23;4.73;;;31.50;62.00;;;;;;5017622;28;20819;-59
2022/06/15 10:26:33;;;;;;;7.40;5.30;;;31.40;58.00;;;;;;5010903;28;21001;-58
2022/06/15 10:29:22;;;;;;;6.23;5.53;;;30.90;57.00;;;;;;5018604;28;20479;-61
2022/06/15 10:32:03;;;;;;;5.43;4.93;;;30.40;60.00;;;;;;5026080;28;20483;-60
2022/06/15 10:34:33;;;;;;;5.90;5.37;;;30.40;62.70;;;;;;5018265;28;20521;-57
2022/06/15 10:37:05;;;;;;;6.40;5.40;;;30.40;62.30;;;;;;5013056;28;20488;-60
2022/06/15 10:39:35;;;;;;;6.17;5.23;;;30.50;60.60;;;;;;5000887;28;20462;-59
2022/06/15 10:42:07;;;;;;;6.47;4.60;;;30.50;60.70;;;;;;5009687;28;21050;-58
2022/06/15 10:44:38;;;;;;;4.10;3.80;;;31.10;62.90;;;;;;5008625;28;20463;-58
2022/06/15 10:47:07;;;;;;;4.83;4.43;;;31.20;59.00;;;;;;5010875;28;21069;-59
2022/06/15 10:49:41;;;;;;;4.33;3.93;;;31.40;62.80;;;;;;5008426;28;20741;-60
2022/06/15 10:52:17;;;;;;;4.93;4.43;;;31.70;62.10;;;;;;5009414;28;20475;-59
2022/06/15 11:03:17;;;;;;;5.50;4.10;;;32.00;58.90;;;;;;5008773;28;20515;-60
2022/06/15 11:05:49;;;;;;;4.60;4.10;;;32.10;59.70;;;;;;5008755;28;20451;-60
2022/06/15 11:08:19;;;;;;;6.50;4.70;;;32.20;60.90;;;;;;5007242;28;20488;-60
2022/06/15 11:10:49;;;;;;;5.77;5.27;;;32.20;57.90;;;;;;5002732;28;21649;-58
2022/06/15 11:13:35;;;;;;;4.40;4.00;;;32.00;59.10;;;;;;5000875;28;20484;-58
2022/06/15 11:19:11;;;;;;;4.80;3.93;;;31.90;55.20;;;;;;5003268;28;20507;-60
2022/06/15 11:21:45;;;;;;;4.73;4.30;;;31.90;56.90;;;;;;5007904;28;20481;-59
2022/06/15 11:24:24;;;;;;;5.03;4.53;;;32.10;58.80;;;;;;5009138;28;20456;-58
2022/06/15 11:26:59;;;;;;;4.10;3.70;;;32.30;60.40;;;;;;5008653;28;20480;-58
2022/06/15 11:29:42;;;;;;;5.60;4.63;;;32.60;61.00;;;;;;4988683;28;20549;-58
2022/06/15 11:32:17;;;;;;;6.47;4.50;;;32.90;54.90;;;;;;5003444;28;20787;-60
2022/06/15 11:34:55;;;;;;;4.53;4.13;;;32.90;55.30;;;;;;5005951;28;20977;-59
2022/06/15 11:37:29;;;;;;;4.60;4.20;;;32.80;59.30;;;;;;5009341;28;20466;-59
2022/06/15 11:40:02;;;;;;;5.10;4.00;;;32.90;60.20;;;;;;5005438;28;20451;-59
2022/06/15 11:42:30;;;;;;;4.77;4.40;;;32.90;59.50;;;;;;5003249;28;20930;-59
2022/06/15 11:44:56;;;;;;;5.13;3.93;;;32.80;54.50;;;;;;5006615;28;20984;-58
2022/06/15 11:47:32;;;;;;;4.83;4.27;;;32.80;56.30;;;;;;5007761;28;20597;-58
2022/06/15 11:50:11;;;;;;;5.23;4.20;;;33.00;59.10;;;;;;5007313;28;20727;-58
2022/06/15 11:52:52;;;;;;;6.70;4.50;;;33.40;57.50;;;;;;5007482;28;20533;-58
2022/06/15 11:55:29;;;;;;;6.07;4.90;;;33.40;57.30;;;;;;5005945;28;20500;-58
2022/06/15 11:58:14;;;;;;;4.20;3.80;;;33.40;56.30;;;;;;5006953;28;20480;-58
2022/06/15 12:00:49;;;;;;;4.90;3.90;;;33.50;57.60;;;;;;5005816;28;20468;-58
2022/06/15 12:03:30;;;;;;;5.03;3.50;;;33.50;55.80;;;;;;5007280;28;21193;-59
2022/06/15 12:06:05;;;;;;;5.97;4.20;;;33.30;55.50;;;;;;5005762;28;20745;-58
2022/06/15 12:08:42;;;;;;;5.03;3.43;;;33.20;56.90;;;;;;5006813;28;20488;-58
2022/06/15 12:14:03;;;;;;;4.03;3.73;;;33.00;53.60;;;;;;5003590;28;20484;-58
2022/06/15 12:16:35;;;;;;;5.47;4.30;;;33.00;54.50;;;;;;5000943;28;20831;-58
2022/06/15 12:19:10;;;;;;;4.63;4.10;;;33.20;55.00;;;;;;5007643;28;20483;-58
2022/06/15 12:21:44;;;;;;;6.43;3.83;;;32.80;54.70;;;;;;4996636;28;20490;-58
2022/06/15 12:24:19;;;;;;;8.80;3.77;;;33.10;57.00;;;;;;4997216;28;20885;-58
2022/06/15 12:26:53;;;;;;;3.57;3.27;;;33.20;58.20;;;;;;4999091;28;20451;-58
2022/06/15 12:29:37;;;;;;;5.13;3.80;;;33.50;56.40;;;;;;5007693;28;20900;-58
2022/06/15 12:32:31;;;;;;;4.20;3.80;;;33.60;56.20;;;;;;5006025;28;20488;-56
2022/06/15 12:35:09;;;;;;;5.30;4.03;;;33.80;53.00;;;;;;5006436;28;20604;-57
2022/06/15 12:37:41;;;;;;;4.40;4.10;;;33.80;54.30;;;;;;4996188;28;21008;-57
2022/06/15 12:40:22;;;;;;;4.20;3.80;;;33.80;55.90;;;;;;5018582;28;20598;-58
2022/06/15 12:42:54;;;;;;;5.27;4.10;;;34.00;53.60;;;;;;4991048;28;21059;-57
2022/06/15 12:45:24;;;;;;;4.47;3.77;;;34.00;53.20;;;;;;5008934;28;20473;-56
2022/06/15 12:48:33;;;;;;;3.47;3.17;;;34.10;53.50;;;;;;5009030;28;20476;-57
2022/06/15 12:51:07;;;;;;;3.90;3.40;;;34.30;54.20;;;;;;5006573;28;20977;-56
2022/06/15 12:53:44;;;;;;;3.47;2.80;;;34.30;54.80;;;;;;5007706;28;20464;-57
2022/06/15 12:56:21;;;;;;;5.37;3.33;;;34.50;54.20;;;;;;5007065;28;20635;-57
2022/06/15 12:59:01;;;;;;;5.20;3.50;;;34.50;53.10;;;;;;4985153;28;20450;-57
2022/06/15 13:01:36;;;;;;;3.63;2.93;;;34.70;50.90;;;;;;5007980;28;20866;-58
2022/06/15 13:04:17;;;;;;;3.67;3.33;;;34.60;51.10;;;;;;5006504;28;20486;-57
2022/06/15 13:06:45;;;;;;;4.80;3.67;;;34.60;50.20;;;;;;5006041;28;20955;-58
2022/06/15 13:09:22;;;;;;;3.90;3.37;;;34.30;51.90;;;;;;5006070;28;20489;-57
2022/06/15 13:12:06;;;;;;;5.27;3.37;;;34.30;52.30;;;;;;5007293;28;20945;-58
2022/06/15 13:14:37;;;;;;;3.90;3.60;;;34.60;53.70;;;;;;5008218;28;20454;-56
2022/06/15 13:17:11;;;;;;;6.97;3.40;;;34.50;51.90;;;;;;5008201;28;20850;-57
2022/06/15 13:19:41;;;;;;;3.30;3.00;;;34.60;51.40;;;;;;5006589;28;20467;-57
2022/06/15 13:22:14;;;;;;;4.60;3.30;;;34.60;53.30;;;;;;5007362;28;20682;-57
2022/06/15 13:24:51;;;;;;;4.07;3.60;;;34.50;51.80;;;;;;5010007;28;20479;-57